EWG123 EDDL-EDDK
Flight info
| Callsign | EWG123 |
|---|---|
| Flight time | 0h 41m |
| Altitude | 7000 |
| Route | NVO3Z NVO DCT KBO |
| Aircraft | A20N/M-SDE2E3FGHIRWXY/LB1 |
Departure
| Time | 2026-05-05 14:44 |
|---|---|
| Airport | Düsseldorf Airport (EDDL) |
Arrival
| Time | 2026-05-05 15:26 |
|---|---|
| Airport | Cologne Bonn Airport (EDDK) |
| Time | Latitude | Longitude | Altitude | Speed | Heading |
|---|---|---|---|---|---|
| 2026-05-05 14:04 | 51.28107 | 6.76711 | 137 ft | 0 kts | 276° |
| 2026-05-05 14:30 | 51.28107 | 6.76713 | 137 ft | 2 kts | 276° |
| 2026-05-05 14:30 | 51.28105 | 6.76730 | 137 ft | 2 kts | 276° |
| 2026-05-05 14:30 | 51.28099 | 6.76778 | 137 ft | 5 kts | 307° |
| 2026-05-05 14:30 | 51.28072 | 6.76798 | 137 ft | 0 kts | 6° |
| 2026-05-05 14:32 | 51.28079 | 6.76800 | 137 ft | 2 kts | 6° |
| 2026-05-05 14:32 | 51.28089 | 6.76801 | 137 ft | 0 kts | 6° |
| 2026-05-05 14:34 | 51.28104 | 6.76810 | 137 ft | 11 kts | 19° |
| 2026-05-05 14:35 | 51.28197 | 6.76842 | 137 ft | 16 kts | 6° |
| 2026-05-05 14:35 | 51.28282 | 6.76858 | 137 ft | 12 kts | 7° |
| 2026-05-05 14:35 | 51.28368 | 6.76862 | 137 ft | 13 kts | 346° |
| 2026-05-05 14:35 | 51.28443 | 6.76776 | 137 ft | 14 kts | 311° |
| 2026-05-05 14:36 | 51.28424 | 6.76641 | 136 ft | 14 kts | 234° |
| 2026-05-05 14:36 | 51.28358 | 6.76503 | 136 ft | 17 kts | 232° |
| 2026-05-05 14:36 | 51.28279 | 6.76341 | 136 ft | 20 kts | 232° |
| 2026-05-05 14:36 | 51.28192 | 6.76159 | 136 ft | 20 kts | 235° |
| 2026-05-05 14:37 | 51.28123 | 6.76008 | 136 ft | 13 kts | 233° |
| 2026-05-05 14:37 | 51.28081 | 6.75919 | 136 ft | 7 kts | 233° |
| 2026-05-05 14:37 | 51.28066 | 6.75887 | 136 ft | 1 kts | 233° |
| 2026-05-05 14:37 | 51.28055 | 6.75863 | 136 ft | 5 kts | 233° |
| 2026-05-05 14:38 | 51.28024 | 6.75798 | 136 ft | 10 kts | 233° |
| 2026-05-05 14:38 | 51.27974 | 6.75694 | 136 ft | 14 kts | 232° |
| 2026-05-05 14:38 | 51.27906 | 6.75558 | 136 ft | 18 kts | 232° |
| 2026-05-05 14:38 | 51.27842 | 6.75400 | 136 ft | 15 kts | 259° |
| 2026-05-05 14:39 | 51.27884 | 6.75317 | 135 ft | 0 kts | 332° |
| 2026-05-05 14:40 | 51.27886 | 6.75314 | 135 ft | 3 kts | 332° |
| 2026-05-05 14:40 | 51.27981 | 6.75283 | 130 ft | 20 kts | 15° |
| 2026-05-05 14:40 | 51.28057 | 6.75404 | 129 ft | 0 kts | 51° |
| 2026-05-05 14:43 | 51.28070 | 6.75433 | 127 ft | 21 kts | 54° |
| 2026-05-05 14:44 | 51.28348 | 6.76013 | 133 ft | 108 kts | 53° |
| 2026-05-05 14:44 | 51.28954 | 6.77234 | 249 ft | 162 kts | 47° |
| 2026-05-05 14:44 | 51.29673 | 6.78653 | 1129 ft | 163 kts | 50° |
| 2026-05-05 14:44 | 51.30352 | 6.80096 | 2175 ft | 165 kts | 53° |
| 2026-05-05 14:45 | 51.31073 | 6.81661 | 2708 ft | 185 kts | 53° |
| 2026-05-05 14:45 | 51.31889 | 6.83422 | 3156 ft | 208 kts | 53° |
| 2026-05-05 14:45 | 51.32783 | 6.85332 | 3770 ft | 220 kts | 53° |
| 2026-05-05 14:45 | 51.33714 | 6.87319 | 4495 ft | 226 kts | 53° |
| 2026-05-05 14:46 | 51.34641 | 6.89380 | 4773 ft | 229 kts | 55° |
| 2026-05-05 14:46 | 51.35276 | 6.91681 | 4863 ft | 228 kts | 82° |
| 2026-05-05 14:46 | 51.35188 | 6.94208 | 4874 ft | 232 kts | 100° |
| 2026-05-05 14:46 | 51.34883 | 6.96991 | 4872 ft | 273 kts | 100° |
| 2026-05-05 14:47 | 51.34562 | 7.00037 | 4869 ft | 280 kts | 99° |
| 2026-05-05 14:47 | 51.34248 | 7.03107 | 4872 ft | 280 kts | 99° |
| 2026-05-05 14:47 | 51.33938 | 7.06184 | 4865 ft | 280 kts | 99° |
| 2026-05-05 14:47 | 51.33410 | 7.09157 | 4869 ft | 279 kts | 118° |
| 2026-05-05 14:48 | 51.32163 | 7.11494 | 4864 ft | 278 kts | 144° |
| 2026-05-05 14:48 | 51.30404 | 7.12727 | 4866 ft | 278 kts | 170° |
| 2026-05-05 14:48 | 51.28489 | 7.12620 | 4865 ft | 278 kts | 196° |
| 2026-05-05 14:48 | 51.26776 | 7.11244 | 4865 ft | 278 kts | 214° |
| 2026-05-05 14:49 | 51.25175 | 7.09493 | 4869 ft | 278 kts | 214° |
| 2026-05-05 14:49 | 51.23583 | 7.07751 | 4862 ft | 277 kts | 214° |
| 2026-05-05 14:49 | 51.21989 | 7.06018 | 4866 ft | 277 kts | 214° |
| 2026-05-05 14:49 | 51.20392 | 7.04293 | 4868 ft | 277 kts | 214° |
| 2026-05-05 14:50 | 51.18792 | 7.02570 | 4866 ft | 277 kts | 214° |
| 2026-05-05 14:50 | 51.17194 | 7.00853 | 4865 ft | 280 kts | 214° |
| 2026-05-05 14:50 | 51.15496 | 6.99030 | 4863 ft | 313 kts | 214° |
| 2026-05-05 14:50 | 51.13664 | 6.97064 | 4863 ft | 318 kts | 214° |
| 2026-05-05 14:51 | 51.11825 | 6.95092 | 4866 ft | 319 kts | 214° |
| 2026-05-05 14:51 | 51.09981 | 6.93117 | 4868 ft | 320 kts | 214° |
| 2026-05-05 14:51 | 51.08136 | 6.91143 | 4862 ft | 320 kts | 214° |
| 2026-05-05 14:51 | 51.06291 | 6.89171 | 4865 ft | 319 kts | 214° |
| 2026-05-05 14:52 | 51.04445 | 6.87200 | 4868 ft | 319 kts | 214° |
| 2026-05-05 14:52 | 51.02598 | 6.85228 | 4867 ft | 319 kts | 214° |
| 2026-05-05 14:52 | 51.00883 | 6.83400 | 4866 ft | 319 kts | 214° |
| 2026-05-05 14:52 | 50.99155 | 6.81550 | 4873 ft | 313 kts | 214° |
| 2026-05-05 14:53 | 50.97327 | 6.79606 | 4864 ft | 319 kts | 214° |
| 2026-05-05 14:53 | 50.95482 | 6.77648 | 4860 ft | 319 kts | 214° |
| 2026-05-05 14:53 | 50.93639 | 6.75694 | 4868 ft | 319 kts | 214° |
| 2026-05-05 14:53 | 50.91790 | 6.73733 | 4864 ft | 319 kts | 214° |
| 2026-05-05 14:54 | 50.89943 | 6.71788 | 4863 ft | 319 kts | 211° |
| 2026-05-05 14:54 | 50.87876 | 6.70553 | 4868 ft | 319 kts | 189° |
| 2026-05-05 14:54 | 50.85672 | 6.70717 | 4872 ft | 320 kts | 165° |
| 2026-05-05 14:54 | 50.83678 | 6.72259 | 4862 ft | 322 kts | 142° |
| 2026-05-05 14:55 | 50.82231 | 6.74932 | 4867 ft | 323 kts | 119° |
| 2026-05-05 14:55 | 50.81573 | 6.78204 | 4864 ft | 0 kts | 96° |
| 2026-05-05 14:55 | 50.81691 | 6.81357 | 4871 ft | 322 kts | 76° |
| 2026-05-05 14:55 | 50.82530 | 6.84658 | 4859 ft | 327 kts | 65° |
| 2026-05-05 14:56 | 50.83450 | 6.87937 | 4838 ft | 323 kts | 69° |
| 2026-05-05 14:56 | 50.84147 | 6.91300 | 4835 ft | 321 kts | 75° |
| 2026-05-05 14:56 | 50.84630 | 6.94746 | 4765 ft | 320 kts | 80° |
| 2026-05-05 14:56 | 50.84967 | 6.98169 | 4788 ft | 308 kts | 83° |
| 2026-05-05 14:57 | 50.85232 | 7.01497 | 4836 ft | 301 kts | 84° |
| 2026-05-05 14:57 | 50.85472 | 7.04779 | 4838 ft | 299 kts | 84° |
| 2026-05-05 14:57 | 50.85608 | 7.06556 | 4833 ft | 294 kts | 81° |
| 2026-05-05 14:57 | 50.86324 | 7.09502 | 4833 ft | 285 kts | 55° |
| 2026-05-05 14:58 | 50.87795 | 7.11649 | 4838 ft | 293 kts | 28° |
| 2026-05-05 14:58 | 50.89723 | 7.12582 | 4834 ft | 291 kts | 2° |
| 2026-05-05 14:58 | 50.91706 | 7.12094 | 4836 ft | 290 kts | 336° |
| 2026-05-05 14:58 | 50.93538 | 7.10747 | 4841 ft | 290 kts | 333° |
| 2026-05-05 14:59 | 50.95312 | 7.09268 | 4828 ft | 287 kts | 322° |
| 2026-05-05 14:59 | 50.96620 | 7.06919 | 4840 ft | 286 kts | 296° |
| 2026-05-05 14:59 | 50.97308 | 7.03972 | 4840 ft | 285 kts | 287° |
| 2026-05-05 14:59 | 50.97922 | 7.01027 | 4837 ft | 285 kts | 287° |
| 2026-05-05 15:00 | 50.98538 | 6.98036 | 4840 ft | 285 kts | 287° |
| 2026-05-05 15:00 | 50.98950 | 6.96028 | 4843 ft | 284 kts | 287° |
| 2026-05-05 15:00 | 50.99733 | 6.92047 | 4842 ft | 285 kts | 286° |
| 2026-05-05 15:00 | 51.00287 | 6.89139 | 4852 ft | 285 kts | 286° |
| 2026-05-05 15:01 | 51.00855 | 6.86153 | 4860 ft | 278 kts | 286° |
| 2026-05-05 15:01 | 51.01410 | 6.83226 | 4863 ft | 277 kts | 286° |
| 2026-05-05 15:01 | 51.01967 | 6.80290 | 4859 ft | 279 kts | 286° |
| 2026-05-05 15:01 | 51.02523 | 6.77348 | 4864 ft | 278 kts | 286° |
| 2026-05-05 15:02 | 51.03080 | 6.74398 | 4867 ft | 278 kts | 286° |
| 2026-05-05 15:02 | 51.03636 | 6.71444 | 4863 ft | 279 kts | 286° |
| 2026-05-05 15:02 | 51.04189 | 6.68500 | 4869 ft | 279 kts | 286° |
| 2026-05-05 15:02 | 51.04743 | 6.65547 | 4865 ft | 279 kts | 286° |
| 2026-05-05 15:03 | 51.05295 | 6.62593 | 4864 ft | 279 kts | 286° |
| 2026-05-05 15:03 | 51.05846 | 6.59643 | 4865 ft | 279 kts | 286° |
| 2026-05-05 15:03 | 51.06398 | 6.56689 | 4864 ft | 279 kts | 286° |
| 2026-05-05 15:03 | 51.06950 | 6.53727 | 4862 ft | 279 kts | 286° |
| 2026-05-05 15:04 | 51.07492 | 6.50801 | 4863 ft | 279 kts | 286° |
| 2026-05-05 15:04 | 51.08049 | 6.47803 | 4861 ft | 279 kts | 286° |
| 2026-05-05 15:04 | 51.08589 | 6.44879 | 4863 ft | 279 kts | 286° |
| 2026-05-05 15:04 | 51.09136 | 6.41915 | 4864 ft | 279 kts | 286° |
| 2026-05-05 15:05 | 51.10230 | 6.35983 | 4862 ft | 280 kts | 286° |
| 2026-05-05 15:05 | 51.10779 | 6.33005 | 4862 ft | 279 kts | 286° |
| 2026-05-05 15:05 | 51.11326 | 6.30042 | 4868 ft | 279 kts | 286° |
| 2026-05-05 15:06 | 51.11665 | 6.27015 | 4866 ft | 278 kts | 267° |
| 2026-05-05 15:06 | 51.11172 | 6.24065 | 4866 ft | 278 kts | 240° |
| 2026-05-05 15:06 | 51.09897 | 6.21784 | 4874 ft | 278 kts | 214° |
| 2026-05-05 15:06 | 51.08235 | 6.20198 | 4867 ft | 279 kts | 210° |
| 2026-05-05 15:07 | 51.06482 | 6.18907 | 4869 ft | 278 kts | 193° |
| 2026-05-05 15:07 | 51.04560 | 6.18882 | 4867 ft | 279 kts | 169° |
| 2026-05-05 15:07 | 51.02659 | 6.19496 | 4863 ft | 279 kts | 168° |
| 2026-05-05 15:07 | 51.00764 | 6.20146 | 4867 ft | 278 kts | 168° |
| 2026-05-05 15:08 | 50.98869 | 6.20792 | 4865 ft | 278 kts | 168° |
| 2026-05-05 15:08 | 50.96971 | 6.21426 | 4869 ft | 278 kts | 168° |
| 2026-05-05 15:08 | 50.95102 | 6.22039 | 4868 ft | 278 kts | 168° |
| 2026-05-05 15:08 | 50.93183 | 6.22661 | 4863 ft | 278 kts | 168° |
| 2026-05-05 15:09 | 50.91291 | 6.23273 | 4865 ft | 278 kts | 169° |
| 2026-05-05 15:09 | 50.89473 | 6.24145 | 4865 ft | 278 kts | 151° |
| 2026-05-05 15:09 | 50.88030 | 6.26161 | 4863 ft | 280 kts | 124° |
| 2026-05-05 15:09 | 50.87201 | 6.28942 | 4858 ft | 281 kts | 110° |
| 2026-05-05 15:10 | 50.86593 | 6.31879 | 4868 ft | 280 kts | 107° |
| 2026-05-05 15:10 | 50.86018 | 6.34834 | 4862 ft | 280 kts | 108° |
| 2026-05-05 15:10 | 50.85424 | 6.37771 | 4865 ft | 280 kts | 108° |
| 2026-05-05 15:10 | 50.84805 | 6.40692 | 4864 ft | 280 kts | 109° |
| 2026-05-05 15:11 | 50.84163 | 6.43621 | 4861 ft | 281 kts | 109° |
| 2026-05-05 15:11 | 50.83516 | 6.46531 | 4859 ft | 280 kts | 110° |
| 2026-05-05 15:11 | 50.82864 | 6.49437 | 4865 ft | 280 kts | 110° |
| 2026-05-05 15:11 | 50.82209 | 6.52354 | 4867 ft | 281 kts | 110° |
| 2026-05-05 15:12 | 50.81556 | 6.55258 | 4866 ft | 280 kts | 110° |
| 2026-05-05 15:12 | 50.80912 | 6.58119 | 4860 ft | 280 kts | 110° |
| 2026-05-05 15:12 | 50.80257 | 6.61028 | 4868 ft | 281 kts | 110° |
| 2026-05-05 15:12 | 50.79603 | 6.63930 | 4764 ft | 281 kts | 110° |
| 2026-05-05 15:13 | 50.78943 | 6.66849 | 4349 ft | 283 kts | 110° |
| 2026-05-05 15:13 | 50.78269 | 6.69823 | 3639 ft | 292 kts | 109° |
| 2026-05-05 15:13 | 50.77574 | 6.72877 | 3100 ft | 295 kts | 109° |
| 2026-05-05 15:13 | 50.76894 | 6.75870 | 2909 ft | 283 kts | 108° |
| 2026-05-05 15:14 | 50.76246 | 6.78717 | 2863 ft | 268 kts | 108° |
| 2026-05-05 15:14 | 50.75605 | 6.81545 | 2860 ft | 276 kts | 108° |
| 2026-05-05 15:14 | 50.74962 | 6.84378 | 2864 ft | 271 kts | 108° |
| 2026-05-05 15:14 | 50.74350 | 6.87063 | 2852 ft | 250 kts | 108° |
| 2026-05-05 15:15 | 50.73781 | 6.89554 | 2850 ft | 232 kts | 108° |
| 2026-05-05 15:15 | 50.73240 | 6.91924 | 2865 ft | 238 kts | 108° |
| 2026-05-05 15:15 | 50.72668 | 6.94442 | 2838 ft | 243 kts | 108° |
| 2026-05-05 15:15 | 50.72098 | 6.96944 | 2844 ft | 242 kts | 108° |
| 2026-05-05 15:16 | 50.71525 | 6.99450 | 2838 ft | 243 kts | 109° |
| 2026-05-05 15:16 | 50.70949 | 7.01962 | 2841 ft | 243 kts | 109° |
| 2026-05-05 15:16 | 50.70569 | 7.03619 | 2835 ft | 242 kts | 109° |
| 2026-05-05 15:16 | 50.69996 | 7.06114 | 2828 ft | 242 kts | 109° |
| 2026-05-05 15:17 | 50.69236 | 7.09420 | 2529 ft | 244 kts | 108° |
| 2026-05-05 15:17 | 50.68847 | 7.11107 | 2393 ft | 240 kts | 108° |
| 2026-05-05 15:17 | 50.68116 | 7.14274 | 2345 ft | 223 kts | 108° |
| 2026-05-05 15:17 | 50.67603 | 7.16491 | 2333 ft | 207 kts | 108° |
| 2026-05-05 15:18 | 50.67270 | 7.17933 | 2347 ft | 211 kts | 108° |
| 2026-05-05 15:18 | 50.66766 | 7.20124 | 2333 ft | 211 kts | 108° |
| 2026-05-05 15:18 | 50.66272 | 7.22255 | 2333 ft | 211 kts | 108° |
| 2026-05-05 15:18 | 50.65770 | 7.24426 | 2332 ft | 210 kts | 109° |
| 2026-05-05 15:19 | 50.65269 | 7.26597 | 2327 ft | 206 kts | 107° |
| 2026-05-05 15:19 | 50.65179 | 7.28715 | 2325 ft | 186 kts | 72° |
| 2026-05-05 15:19 | 50.65818 | 7.30480 | 2346 ft | 188 kts | 45° |
| 2026-05-05 15:19 | 50.66687 | 7.31959 | 2330 ft | 185 kts | 45° |
| 2026-05-05 15:20 | 50.67552 | 7.33436 | 2358 ft | 179 kts | 45° |
| 2026-05-05 15:20 | 50.68369 | 7.34845 | 2331 ft | 172 kts | 46° |
| 2026-05-05 15:20 | 50.69218 | 7.36189 | 2327 ft | 173 kts | 33° |
| 2026-05-05 15:20 | 50.70337 | 7.36757 | 2345 ft | 173 kts | 359° |
| 2026-05-05 15:21 | 50.71487 | 7.36298 | 2347 ft | 172 kts | 334° |
| 2026-05-05 15:21 | 50.72488 | 7.35269 | 2333 ft | 172 kts | 322° |
| 2026-05-05 15:21 | 50.73375 | 7.34077 | 2328 ft | 162 kts | 319° |
| 2026-05-05 15:21 | 50.74207 | 7.32896 | 2334 ft | 161 kts | 319° |
| 2026-05-05 15:22 | 50.75014 | 7.31728 | 2328 ft | 147 kts | 319° |
| 2026-05-05 15:22 | 50.75727 | 7.30705 | 2327 ft | 137 kts | 319° |
| 2026-05-05 15:22 | 50.76468 | 7.29638 | 2326 ft | 149 kts | 319° |
| 2026-05-05 15:22 | 50.77227 | 7.28546 | 2339 ft | 147 kts | 319° |
| 2026-05-05 15:23 | 50.77985 | 7.27456 | 2331 ft | 148 kts | 319° |
| 2026-05-05 15:23 | 50.78863 | 7.26197 | 2201 ft | 191 kts | 319° |
| 2026-05-05 15:23 | 50.79915 | 7.24663 | 1879 ft | 214 kts | 318° |
| 2026-05-05 15:23 | 50.80999 | 7.23096 | 1631 ft | 200 kts | 318° |
| 2026-05-05 15:24 | 50.81955 | 7.21711 | 1335 ft | 174 kts | 318° |
| 2026-05-05 15:24 | 50.82799 | 7.20492 | 1086 ft | 156 kts | 318° |
| 2026-05-05 15:24 | 50.83570 | 7.19377 | 848 ft | 143 kts | 318° |
| 2026-05-05 15:24 | 50.84273 | 7.18361 | 679 ft | 130 kts | 318° |
| 2026-05-05 15:25 | 50.84915 | 7.17433 | 518 ft | 124 kts | 317° |
| 2026-05-05 15:25 | 50.85560 | 7.16499 | 356 ft | 126 kts | 317° |
| 2026-05-05 15:25 | 50.86169 | 7.15617 | 282 ft | 104 kts | 317° |
| 2026-05-05 15:25 | 50.86598 | 7.15001 | 262 ft | 66 kts | 319° |
| 2026-05-05 15:26 | 50.86821 | 7.14654 | 256 ft | 26 kts | 304° |
| 2026-05-05 15:26 | 50.86866 | 7.14484 | 256 ft | 2 kts | 283° |
| 2026-05-05 15:26 | 50.86879 | 7.14404 | 258 ft | 11 kts | 283° |
| 2026-05-05 15:26 | 50.86887 | 7.14331 | 259 ft | 3 kts | 279° |
| 2026-05-05 15:27 | 50.86890 | 7.14306 | 259 ft | 0 kts | 279° |
| 2026-05-05 15:28 | 50.86890 | 7.14305 | 259 ft | 1 kts | 279° |
| 2026-05-05 15:28 | 50.86903 | 7.14195 | 258 ft | 18 kts | 281° |
| 2026-05-05 15:28 | 50.86974 | 7.14004 | 257 ft | 22 kts | 316° |
| 2026-05-05 15:29 | 50.87097 | 7.13827 | 253 ft | 25 kts | 320° |
| 2026-05-05 15:29 | 50.87250 | 7.13612 | 247 ft | 34 kts | 317° |
| 2026-05-05 15:29 | 50.87433 | 7.13347 | 245 ft | 37 kts | 318° |
| 2026-05-05 15:29 | 50.87619 | 7.13072 | 245 ft | 36 kts | 314° |
| 2026-05-05 15:30 | 50.87764 | 7.12846 | 240 ft | 22 kts | 310° |
| 2026-05-05 15:30 | 50.87775 | 7.12722 | 237 ft | 0 kts | 227° |